Thornton, Washington
Current Conditions -  °F | °C
As of 10:53 AM on Friday 21 Nov 2014 (Local Time) from KPUW Reporting Station
Overcast Overcast  
Wind Chill: 33°   Ceiling: 3800
Heat Index: 40°   Visibility: 10mi
Dew Point: 35°   Wind: 12mph
Humidity: 83%   Direction: 100°E
Pressure: 29.88"   Gusts: NA
Location:  47.12°N, 117.39°W
Report Text: KPUW 211853Z AUTO 10010KT 10SM BKN038 OVC080 04/02 A2988 RMK AO2 SLP134 T00440017
Loading
Personal Weather Stations






























Interactive Weather Map New forecast layout! Learn more

10-Day Weather Forecast

Advertisements
Track Severe Weather on mobile